Time;durP1;ratioP1;P1;durP2;ratioP2;P2;SDS_P1;SDS_P2;PMS_P1;PMS_P2;Temp;Humidity;BMP_temperature;BMP_pressure;BME280_temperature;BME280_humidity;BME280_pressure;Samples;Min_cycle;Max_cycle;Signal;HPM_P1;HPM_P2
2022/08/07 00:00:45;;;;;;;12.00;7.03;;;;;;;17.98;88.79;96878.13;5075041;28;20044;-80
2022/08/07 00:03:14;;;;;;;14.32;7.57;;;;;;;18.03;88.90;96885.31;5074790;28;20040;-80
2022/08/07 00:05:42;;;;;;;10.65;6.97;;;;;;;17.98;88.27;96869.84;5083592;28;20052;-79
2022/08/07 00:08:08;;;;;;;10.15;6.30;;;;;;;17.99;88.13;96876.16;5074985;28;20051;-80
2022/08/07 00:10:38;;;;;;;9.02;6.43;;;;;;;17.94;87.53;96876.41;5077248;28;20131;-80
2022/08/07 00:13:08;;;;;;;10.77;7.07;;;;;;;17.71;87.59;96881.69;5080300;28;20041;-80
2022/08/07 00:15:35;;;;;;;10.82;6.30;;;;;;;17.76;87.75;96880.66;5077315;28;20053;-79
2022/08/07 00:18:01;;;;;;;8.63;5.03;;;;;;;17.89;87.80;96871.97;5076859;28;20492;-80
2022/08/07 00:20:28;;;;;;;7.65;5.40;;;;;;;17.95;87.72;96872.50;5081372;28;20397;-80
2022/08/07 00:22:57;;;;;;;7.55;5.35;;;;;;;17.94;87.74;96879.97;5075256;28;20051;-80
2022/08/07 00:25:24;;;;;;;7.85;5.35;;;;;;;17.99;87.43;96885.22;5073977;28;20043;-80
2022/08/07 00:27:54;;;;;;;8.88;6.07;;;;;;;17.97;87.50;96879.28;5074163;28;20139;-80
2022/08/07 00:30:22;;;;;;;6.05;4.60;;;;;;;18.03;87.11;96887.28;5074255;28;20669;-79
2022/08/07 00:32:49;;;;;;;9.60;4.95;;;;;;;18.03;86.71;96881.78;5073996;28;20073;-80
2022/08/07 00:35:17;;;;;;;8.27;5.10;;;;;;;18.04;86.38;96875.09;5072663;28;20044;-79
2022/08/07 00:37:43;;;;;;;8.02;5.10;;;;;;;17.99;85.86;96879.72;5073921;28;20041;-79
2022/08/07 00:40:12;;;;;;;8.93;5.60;;;;;;;17.92;85.32;96874.03;5073423;28;20048;-79
2022/08/07 00:42:41;;;;;;;7.47;5.13;;;;;;;17.95;85.68;96873.28;5074004;28;20048;-79
2022/08/07 00:45:09;;;;;;;7.72;5.38;;;;;;;17.83;84.82;96869.81;5075595;28;20075;-79
2022/08/07 00:47:36;;;;;;;10.00;5.50;;;;;;;17.82;84.92;96869.03;5074402;28;20048;-80
2022/08/07 00:50:03;;;;;;;7.85;4.97;;;;;;;17.80;84.83;96871.34;5073192;28;20036;-78
2022/08/07 00:52:30;;;;;;;5.95;4.55;;;;;;;17.79;84.71;96877.97;5074105;28;20047;-81
2022/08/07 00:54:56;;;;;;;7.05;4.60;;;;;;;17.84;84.76;96880.47;5074096;28;20049;-80
2022/08/07 00:57:25;;;;;;;7.90;5.15;;;;;;;17.87;85.18;96874.28;5073668;28;20071;-80
2022/08/07 00:59:52;;;;;;;7.82;5.25;;;;;;;17.82;85.60;96874.53;5074796;28;20055;-80
2022/08/07 01:02:19;;;;;;;8.45;5.40;;;;;;;17.80;85.55;96868.59;5072936;28;20565;-80
2022/08/07 01:04:45;;;;;;;7.03;4.60;;;;;;;17.77;85.31;96872.03;5074509;28;20055;-80
2022/08/07 01:07:13;;;;;;;8.18;5.72;;;;;;;17.68;85.30;96879.59;5072489;28;20040;-78
2022/08/07 01:09:39;;;;;;;9.52;5.80;;;;;;;17.66;84.69;96876.41;5072276;28;20131;-79
2022/08/07 01:12:07;;;;;;;9.77;5.63;;;;;;;17.71;84.50;96867.91;5071807;28;20071;-80
2022/08/07 01:14:38;;;;;;;6.40;5.05;;;;;;;17.77;84.71;96866.53;5073171;28;20051;-81
2022/08/07 01:17:04;;;;;;;7.85;5.70;;;;;;;17.78;85.06;96862.59;5072364;28;20047;-78
2022/08/07 01:19:33;;;;;;;7.60;5.32;;;;;;;17.79;84.90;96858.69;5071213;28;20060;-82
2022/08/07 01:22:02;;;;;;;7.13;5.40;;;;;;;17.72;84.83;96861.22;5071820;28;20068;-82
2022/08/07 01:24:29;;;;;;;8.82;5.35;;;;;;;17.74;84.92;96867.22;5071429;28;20510;-80
2022/08/07 01:26:56;;;;;;;8.75;5.03;;;;;;;17.74;85.13;96865.25;5072004;28;20052;-80
2022/08/07 01:29:25;;;;;;;7.22;5.20;;;;;;;17.71;84.33;96854.13;5072112;28;20062;-82
2022/08/07 01:31:52;;;;;;;7.38;5.30;;;;;;;17.73;84.33;96849.88;5072427;28;20065;-82
2022/08/07 01:34:19;;;;;;;7.82;5.10;;;;;;;17.77;84.57;96849.19;5071271;28;20048;-79
2022/08/07 01:36:46;;;;;;;8.80;5.93;;;;;;;17.67;84.90;96858.72;5072175;28;20538;-80
2022/08/07 01:39:15;;;;;;;10.70;5.38;;;;;;;17.70;84.41;96852.53;5072008;28;20415;-79
2022/08/07 01:41:43;;;;;;;8.70;5.50;;;;;;;17.63;84.15;96860.59;5072184;28;20062;-80
2022/08/07 01:44:10;;;;;;;7.53;4.63;;;;;;;17.66;85.00;96854.38;5071986;28;20071;-81
2022/08/07 01:46:37;;;;;;;7.72;5.00;;;;;;;17.62;84.48;96854.28;5072385;28;20056;-80
2022/08/07 01:49:04;;;;;;;6.95;5.18;;;;;;;17.65;84.71;96859.09;5054375;28;20052;-79
2022/08/07 01:51:35;;;;;;;9.63;5.65;;;;;;;17.54;84.70;96863.50;5071438;28;20052;-80
2022/08/07 01:54:04;;;;;;;7.93;5.38;;;;;;;17.53;84.67;96861.88;5072113;28;20106;-77
2022/08/07 01:56:39;;;;;;;6.70;4.72;;;;;;;17.51;84.35;96846.88;5071505;28;20049;-79
2022/08/07 01:59:11;;;;;;;6.60;4.55;;;;;;;17.50;84.12;96851.59;5072020;28;20044;-80
2022/08/07 02:01:45;;;;;;;6.75;4.85;;;;;;;17.47;84.29;96847.56;5071059;28;20048;-79
2022/08/07 02:04:16;;;;;;;9.02;5.25;;;;;;;17.46;84.42;96845.97;5070341;28;20064;-81
2022/08/07 02:06:44;;;;;;;6.57;4.78;;;;;;;17.39;83.69;96848.53;5071481;28;20439;-79
2022/08/07 02:09:14;;;;;;;6.55;4.93;;;;;;;17.35;83.58;96850.38;5070412;28;20063;-79
2022/08/07 02:11:45;;;;;;;6.60;4.53;;;;;;;17.29;84.08;96846.28;5073055;28;20041;-80
2022/08/07 02:14:14;;;;;;;6.55;4.20;;;;;;;17.27;84.33;96837.56;5071423;28;20514;-80
2022/08/07 02:16:42;;;;;;;7.53;4.40;;;;;;;17.28;84.73;96836.44;5071241;28;20047;-80
2022/08/07 02:19:13;;;;;;;6.72;4.88;;;;;;;17.17;84.27;96843.53;5053276;28;20044;-80
2022/08/07 02:21:44;;;;;;;7.30;5.40;;;;;;;17.12;83.95;96841.03;5070817;28;20053;-82
2022/08/07 02:24:14;;;;;;;7.38;4.75;;;;;;;17.16;84.36;96836.44;5072201;28;20052;-80
2022/08/07 02:26:43;;;;;;;8.23;4.28;;;;;;;17.17;84.10;96832.53;5075924;28;20048;-80
2022/08/07 02:29:13;;;;;;;5.85;4.60;;;;;;;17.19;84.95;96835.75;5076462;28;20135;-80
2022/08/07 02:31:40;;;;;;;6.72;4.53;;;;;;;17.15;83.67;96834.84;5075638;28;20040;-79
2022/08/07 02:34:08;;;;;;;8.45;4.78;;;;;;;17.00;83.52;96824.56;5075621;28;20040;-79
2022/08/07 02:36:38;;;;;;;7.93;5.07;;;;;;;16.99;83.86;96823.78;5075825;28;20052;-79
2022/08/07 02:39:07;;;;;;;10.05;5.18;;;;;;;16.95;84.34;96823.66;5075481;28;20052;-79
2022/08/07 02:41:35;;;;;;;7.03;4.93;;;;;;;17.00;85.02;96811.63;5082651;28;20056;-80
2022/08/07 02:44:04;;;;;;;6.28;4.43;;;;;;;17.04;85.16;96818.03;5090526;28;20170;-81
2022/08/07 02:46:34;;;;;;;6.35;5.22;;;;;;;17.05;85.10;96813.31;5090361;28;20040;-80
2022/08/07 02:49:01;;;;;;;7.03;5.00;;;;;;;17.03;84.85;96813.69;5081999;28;20048;-81
2022/08/07 02:51:35;;;;;;;5.72;4.90;;;;;;;17.06;84.99;96803.91;5085819;28;20047;-79
2022/08/07 02:54:03;;;;;;;6.93;5.20;;;;;;;17.01;84.83;96804.16;5075742;28;20492;-79
2022/08/07 02:56:32;;;;;;;9.80;6.70;;;;;;;16.99;84.61;96804.50;5069986;28;20044;-82
2022/08/07 02:59:03;;;;;;;6.32;4.95;;;;;;;16.95;84.08;96809.09;5080601;28;20487;-80
2022/08/07 03:01:34;;;;;;;7.07;5.55;;;;;;;17.00;84.00;96810.81;5076786;28;20044;-80
2022/08/07 03:04:02;;;;;;;7.07;5.43;;;;;;;17.01;84.81;96809.66;5076059;28;20131;-79
2022/08/07 03:06:29;;;;;;;8.05;5.18;;;;;;;17.04;85.13;96807.03;5074317;28;20052;-80
2022/08/07 03:08:57;;;;;;;9.77;6.10;;;;;;;17.04;84.56;96811.72;5075356;28;20410;-79
2022/08/07 03:11:23;;;;;;;8.00;5.20;;;;;;;17.03;84.94;96810.13;5074928;28;20048;-79
2022/08/07 03:13:51;;;;;;;8.75;6.32;;;;;;;16.99;84.27;96809.22;5075193;28;20049;-80
2022/08/07 03:16:18;;;;;;;8.15;6.40;;;;;;;16.94;85.06;96815.75;5074301;28;20044;-80
2022/08/07 03:18:46;;;;;;;7.22;5.88;;;;;;;16.97;84.81;96814.28;5074039;28;20048;-79
2022/08/07 03:21:13;;;;;;;11.40;6.15;;;;;;;16.91;84.52;96814.53;5074003;28;20052;-80
2022/08/07 03:23:42;;;;;;;9.15;5.90;;;;;;;16.89;84.81;96800.28;5077868;28;20044;-79
2022/08/07 03:26:10;;;;;;;6.55;5.78;;;;;;;16.91;85.33;96809.03;5077832;28;20044;-79
2022/08/07 03:28:36;;;;;;;7.00;5.80;;;;;;;16.91;84.92;96809.03;5075333;28;20069;-79
2022/08/07 03:31:20;;;;;;;11.20;6.28;;;;;;;16.86;84.38;96805.69;5073525;28;20060;-79
2022/08/07 03:33:53;;;;;;;6.82;6.10;;;;;;;16.83;84.56;96812.69;5074174;28;20529;-79
2022/08/07 03:36:23;;;;;;;7.25;5.63;;;;;;;16.79;84.82;96813.72;5070992;28;20041;-80
2022/08/07 03:38:52;;;;;;;6.88;5.55;;;;;;;16.79;84.78;96816.47;5077422;28;20615;-80
2022/08/07 03:41:19;;;;;;;7.43;5.70;;;;;;;16.77;84.79;96808.59;5073830;28;20058;-80
2022/08/07 03:43:46;;;;;;;8.13;5.20;;;;;;;16.80;84.59;96813.38;5073114;28;20040;-80
2022/08/07 03:46:14;;;;;;;5.55;4.95;;;;;;;16.77;84.03;96811.34;5072582;28;20055;-80
2022/08/07 03:48:41;;;;;;;5.97;4.93;;;;;;;16.78;83.13;96812.13;5072477;28;20041;-80
2022/08/07 03:51:11;;;;;;;6.03;4.57;;;;;;;16.81;83.66;96812.25;5071267;28;20044;-79
2022/08/07 03:53:41;;;;;;;6.43;4.53;;;;;;;16.83;81.41;96807.19;5071906;28;20048;-79
2022/08/07 03:56:10;;;;;;;6.63;4.43;;;;;;;16.79;81.38;96806.28;5072672;28;20045;-79
2022/08/07 03:58:37;;;;;;;5.75;4.07;;;;;;;16.81;82.11;96809.50;5073060;28;20048;-79
2022/08/07 04:01:06;;;;;;;5.43;4.25;;;;;;;16.76;82.25;96798.75;5072578;28;20044;-79
2022/08/07 04:03:32;;;;;;;5.15;4.22;;;;;;;16.80;81.55;96807.88;5072157;28;20515;-80
2022/08/07 04:05:59;;;;;;;6.60;4.20;;;;;;;16.80;81.30;96802.38;5072073;28;20040;-79
2022/08/07 04:08:27;;;;;;;5.40;3.80;;;;;;;16.79;81.05;96802.72;5071970;28;20050;-79
2022/08/07 04:10:56;;;;;;;5.43;3.53;;;;;;;16.82;81.69;96791.03;5072833;28;20045;-79
2022/08/07 04:13:24;;;;;;;5.93;3.70;;;;;;;16.81;80.50;96792.16;5071562;28;20043;-79
2022/08/07 04:15:50;;;;;;;4.75;3.55;;;;;;;16.77;80.56;96797.59;5072247;28;20511;-79
2022/08/07 04:18:17;;;;;;;4.20;3.40;;;;;;;16.77;80.82;96802.28;5072041;28;20051;-80
2022/08/07 04:20:46;;;;;;;5.93;3.75;;;;;;;16.75;81.39;96805.38;5071234;28;20504;-79
2022/08/07 04:23:14;;;;;;;4.78;3.72;;;;;;;16.77;81.40;96802.28;5071659;28;20084;-80
2022/08/07 04:25:43;;;;;;;7.03;3.90;;;;;;;16.80;81.02;96807.88;5072353;28;20051;-79
2022/08/07 04:28:10;;;;;;;3.97;3.25;;;;;;;16.76;81.10;96801.50;5071957;28;20049;-79
2022/08/07 04:30:38;;;;;;;4.40;3.58;;;;;;;16.71;82.03;96798.97;5072983;28;20044;-80
2022/08/07 04:33:07;;;;;;;5.22;3.47;;;;;;;16.55;80.05;96800.78;5072679;28;20496;-80
2022/08/07 04:35:36;;;;;;;4.90;2.92;;;;;;;16.65;79.25;96805.81;5066553;28;20487;-79
2022/08/07 04:38:06;;;;;;;3.35;2.60;;;;;;;16.68;78.17;96816.13;5083537;28;20520;-78
2022/08/07 04:40:33;;;;;;;4.47;2.90;;;;;;;16.64;78.37;96810.50;5072249;28;20055;-79
2022/08/07 04:43:02;;;;;;;4.45;3.30;;;;;;;16.64;79.10;96817.97;5072715;28;20045;-79
2022/08/07 04:45:37;;;;;;;3.85;2.63;;;;;;;16.67;77.75;96809.03;5072487;28;20079;-80
2022/08/07 04:48:10;;;;;;;5.97;2.75;;;;;;;16.65;77.33;96812.13;5071427;28;20106;-78
2022/08/07 04:50:41;;;;;;;4.77;2.77;;;;;;;16.63;77.08;96810.88;5072738;28;20040;-80
2022/08/07 04:53:12;;;;;;;3.58;2.38;;;;;;;16.55;75.93;96812.59;5071014;28;20647;-79
2022/08/07 04:55:50;;;;;;;6.80;2.13;;;;;;;16.53;75.62;96805.84;5071763;28;20497;-80
2022/08/07 04:58:24;;;;;;;3.75;2.17;;;;;;;16.54;75.49;96812.94;5071235;28;20044;-79
2022/08/07 05:00:55;;;;;;;3.72;2.33;;;;;;;16.44;75.26;96822.44;5071922;28;20066;-78
2022/08/07 05:03:24;;;;;;;3.83;1.90;;;;;;;16.50;75.95;96815.59;5071020;28;20048;-80
2022/08/07 05:05:58;;;;;;;2.47;2.28;;;;;;;16.46;74.76;96808.38;5072533;28;20701;-80
2022/08/07 05:08:29;;;;;;;2.72;2.05;;;;;;;16.49;76.02;96813.97;5071466;28;20053;-79
2022/08/07 05:11:01;;;;;;;3.78;1.92;;;;;;;16.47;74.42;96815.47;5071474;28;20040;-79
2022/08/07 05:13:35;;;;;;;4.88;2.20;;;;;;;16.46;73.44;96822.13;5071139;28;20036;-79
2022/08/07 05:16:04;;;;;;;3.30;2.13;;;;;;;16.49;75.24;96807.66;5070703;28;20045;-79
2022/08/07 05:18:35;;;;;;;2.28;1.73;;;;;;;16.50;74.18;96810.09;5071038;28;20629;-79
2022/08/07 05:21:04;;;;;;;3.55;1.83;;;;;;;16.50;73.40;96812.03;5070091;28;20522;-79
2022/08/07 05:23:35;;;;;;;2.58;1.60;;;;;;;16.53;74.49;96811.34;5070264;28;20049;-79
2022/08/07 05:26:04;;;;;;;2.00;1.70;;;;;;;16.53;74.23;96808.59;5071048;28;20045;-79
2022/08/07 05:28:34;;;;;;;3.35;1.83;;;;;;;16.60;74.55;96808.78;5071139;28;20044;-79
2022/08/07 05:31:02;;;;;;;3.92;1.67;;;;;;;16.63;73.14;96805.38;5071301;28;20040;-79
2022/08/07 05:33:31;;;;;;;1.55;1.45;;;;;;;16.60;72.02;96808.78;5071617;28;20045;-79
2022/08/07 05:35:58;;;;;;;2.40;1.90;;;;;;;16.61;72.21;96808.47;5071023;28;20191;-79
2022/08/07 05:38:26;;;;;;;3.97;1.60;;;;;;;16.66;72.16;96810.19;5070648;28;20040;-79
2022/08/07 05:40:54;;;;;;;3.08;1.60;;;;;;;16.68;70.12;96813.38;5070795;28;20048;-79
2022/08/07 05:43:21;;;;;;;2.70;1.95;;;;;;;16.62;70.33;96812.00;5070655;28;20049;-79
2022/08/07 05:45:50;;;;;;;2.90;1.70;;;;;;;16.70;70.82;96820.16;5071295;28;20048;-80
2022/08/07 05:48:18;;;;;;;9.88;1.90;;;;;;;16.71;70.47;96818.22;5070214;28;20044;-79
2022/08/07 05:50:45;;;;;;;2.15;1.63;;;;;;;16.70;68.47;96824.81;5070212;28;20072;-79
2022/08/07 05:53:11;;;;;;;2.45;1.85;;;;;;;16.73;69.90;96823.38;5070733;28;20044;-80
2022/08/07 05:55:38;;;;;;;1.65;1.40;;;;;;;16.74;70.59;96819.47;5071272;28;20048;-78
2022/08/07 05:58:05;;;;;;;2.50;1.70;;;;;;;16.78;71.32;96829.44;5069929;28;20049;-79
2022/08/07 06:00:35;;;;;;;2.30;1.90;;;;;;;16.77;69.46;96829.78;5073853;28;20519;-79
2022/08/07 06:03:06;;;;;;;2.60;1.50;;;;;;;16.73;69.83;96823.38;5073920;28;20045;-78
2022/08/07 06:05:34;;;;;;;2.85;1.77;;;;;;;16.76;69.25;96823.50;5074817;28;20051;-78
2022/08/07 06:08:02;;;;;;;4.63;1.85;;;;;;;16.76;69.86;96831.75;5074284;28;20059;-78
2022/08/07 06:10:29;;;;;;;2.13;1.80;;;;;;;16.77;70.72;96829.78;5082563;28;20056;-79
2022/08/07 06:12:56;;;;;;;1.90;1.50;;;;;;;16.79;71.52;96827.47;5074071;28;20435;-78
2022/08/07 06:15:23;;;;;;;3.03;1.90;;;;;;;16.76;71.59;96829.00;5073324;28;20083;-79
2022/08/07 06:17:52;;;;;;;3.47;1.70;;;;;;;16.79;69.66;96821.97;5073548;28;20049;-80
2022/08/07 06:20:21;;;;;;;2.53;1.95;;;;;;;16.83;70.16;96822.91;5072461;28;20045;-78
2022/08/07 06:22:49;;;;;;;2.42;1.50;;;;;;;16.81;70.49;96826.00;5074187;28;20137;-78
2022/08/07 06:25:16;;;;;;;4.68;2.17;;;;;;;16.82;70.35;96824.84;5063330;28;20040;-78
2022/08/07 06:27:42;;;;;;;3.85;1.83;;;;;;;16.88;70.26;96830.91;5081623;28;20048;-79
2022/08/07 06:30:10;;;;;;;2.70;1.98;;;;;;;16.94;71.59;96830.31;5073391;28;20044;-78
2022/08/07 06:32:36;;;;;;;2.90;2.10;;;;;;;17.00;71.07;96827.31;5074188;28;20044;-79
2022/08/07 06:35:06;;;;;;;4.82;2.55;;;;;;;16.95;70.65;96826.41;5079276;28;20043;-78
2022/08/07 06:37:33;;;;;;;4.18;2.47;;;;;;;17.01;69.55;96828.91;5073580;28;20131;-79
2022/08/07 06:40:00;;;;;;;3.55;2.20;;;;;;;17.09;70.35;96828.00;5073657;28;20372;-78
2022/08/07 06:42:35;;;;;;;3.10;2.35;;;;;;;17.19;70.09;96830.25;5073214;28;20047;-78
2022/08/07 06:45:03;;;;;;;3.60;2.30;;;;;;;17.15;69.67;96829.34;5072580;28;20049;-80
2022/08/07 06:47:30;;;;;;;3.15;2.13;;;;;;;17.26;68.60;96837.91;5072995;28;20048;-80
2022/08/07 06:49:57;;;;;;;4.57;2.30;;;;;;;17.37;69.48;96837.06;5077183;28;20042;-80
2022/08/07 06:52:27;;;;;;;2.80;2.38;;;;;;;17.34;69.74;96836.97;5088202;28;20055;-78
2022/08/07 06:54:56;;;;;;;4.30;2.50;;;;;;;17.42;68.67;96823.03;5092005;28;20053;-79
2022/08/07 06:57:24;;;;;;;4.20;2.33;;;;;;;17.48;67.35;96826.34;5090386;28;20047;-81
2022/08/07 06:59:52;;;;;;;4.05;1.92;;;;;;;17.57;68.77;96824.25;5091470;28;20067;-79
2022/08/07 07:02:21;;;;;;;4.38;2.28;;;;;;;17.47;67.41;96830.25;5080431;28;20124;-79
2022/08/07 07:04:48;;;;;;;5.35;2.60;;;;;;;17.52;66.91;96826.44;5077869;28;20414;-78
2022/08/07 07:07:15;;;;;;;3.72;2.00;;;;;;;17.61;66.36;96824.34;5076070;28;20049;-79
2022/08/07 07:09:46;;;;;;;3.45;2.60;;;;;;;17.80;68.52;96823.69;5075283;28;20051;-80
2022/08/07 07:12:39;;;;;;;3.95;2.53;;;;;;;17.81;66.72;96817.84;5075883;28;20047;-79
2022/08/07 07:15:11;;;;;;;5.60;2.63;;;;;;;17.71;65.58;96819.13;5075447;28;20045;-79
2022/08/07 07:17:43;;;;;;;5.80;2.58;;;;;;;17.82;66.12;96821.38;5076355;28;20055;-80
2022/08/07 07:20:16;;;;;;;8.13;2.35;;;;;;;17.90;66.49;96821.19;5074001;28;20051;-80
2022/08/07 07:22:44;;;;;;;5.60;2.65;;;;;;;18.07;66.90;96824.78;5075677;28;20135;-79
2022/08/07 07:25:15;;;;;;;4.05;2.30;;;;;;;18.07;67.58;96822.03;5074995;28;20051;-80
2022/08/07 07:27:51;;;;;;;4.10;2.40;;;;;;;18.02;65.73;96819.56;5075486;28;20408;-80
2022/08/07 07:30:20;;;;;;;4.43;2.58;;;;;;;18.02;65.12;96823.09;5074650;28;20060;-79
2022/08/07 07:32:48;;;;;;;2.65;2.10;;;;;;;18.04;64.56;96823.53;5074474;28;20052;-78
2022/08/07 07:35:16;;;;;;;6.05;2.72;;;;;;;18.20;65.98;96823.53;5074087;28;20052;-80
2022/08/07 07:37:46;;;;;;;5.45;2.67;;;;;;;18.27;65.60;96829.25;5075382;28;20051;-80
2022/08/07 07:40:17;;;;;;;3.63;2.30;;;;;;;18.41;64.96;96818.53;5073716;28;20048;-79
2022/08/07 07:42:47;;;;;;;5.45;3.40;;;;;;;18.44;66.19;96823.34;5074449;28;20044;-80
2022/08/07 07:45:16;;;;;;;6.20;3.00;;;;;;;18.60;66.53;96814.25;5073793;28;20048;-80
2022/08/07 07:47:44;;;;;;;4.65;2.60;;;;;;;18.80;66.53;96815.94;5073935;28;20132;-81
2022/08/07 07:50:13;;;;;;;6.75;2.50;;;;;;;18.76;62.64;96812.28;5072228;28;20071;-81
2022/08/07 07:52:41;;;;;;;3.97;2.42;;;;;;;18.84;62.68;96808.50;5073409;28;20079;-79
2022/08/07 07:55:09;;;;;;;3.65;2.60;;;;;;;19.11;62.89;96804.00;5073917;28;20044;-81
2022/08/07 07:57:37;;;;;;;3.63;2.30;;;;;;;19.23;59.59;96803.06;5073359;28;20055;-78
2022/08/07 08:00:07;;;;;;;2.88;2.08;;;;;;;19.45;57.39;96805.06;5072743;28;20036;-81
2022/08/07 08:02:37;;;;;;;2.63;1.92;;;;;;;19.97;56.24;96809.22;5073548;28;20041;-80
2022/08/07 08:05:06;;;;;;;3.58;2.08;;;;;;;20.61;59.01;96809.50;5073413;28;20047;-81
2022/08/07 08:07:35;;;;;;;3.38;1.73;;;;;;;20.92;55.84;96802.84;5072863;28;20048;-80
2022/08/07 08:10:03;;;;;;;4.88;1.85;;;;;;;20.98;52.93;96801.34;5073598;28;20040;-76
2022/08/07 08:12:31;;;;;;;2.35;1.80;;;;;;;20.96;50.96;96806.47;5073887;28;20055;-80
2022/08/07 08:14:57;;;;;;;2.83;1.80;;;;;;;21.33;53.89;96800.22;5073411;28;20058;-80
2022/08/07 08:17:28;;;;;;;4.53;1.85;;;;;;;21.57;53.91;96805.28;5073137;28;20051;-80
2022/08/07 08:19:59;;;;;;;5.00;1.95;;;;;;;21.43;49.91;96798.78;5073542;28;20049;-80
2022/08/07 08:27:58;;;;;;;5.63;1.70;;;;;;;21.82;51.06;96796.41;5072340;28;20055;-79
2022/08/07 08:30:27;;;;;;;3.15;1.50;;;;;;;21.78;47.32;96798.38;5072435;28;20475;-80
2022/08/07 08:32:59;;;;;;;2.85;1.50;;;;;;;21.93;47.38;96800.13;5070632;28;20044;-79
2022/08/07 08:35:27;;;;;;;3.40;1.92;;;;;;;21.89;47.43;96796.50;5081746;28;20055;-79
2022/08/07 08:37:57;;;;;;;3.25;1.60;;;;;;;21.84;46.12;96796.84;5076920;28;20052;-79
2022/08/07 08:40:30;;;;;;;6.03;1.73;;;;;;;21.81;46.94;96797.59;5072081;28;20048;-79
2022/08/07 08:43:03;;;;;;;2.22;1.70;;;;;;;21.93;47.16;96808.44;5072968;28;20044;-80
2022/08/07 08:45:37;;;;;;;4.95;1.70;;;;;;;21.85;47.08;96803.97;5072842;28;20036;-80
2022/08/07 08:48:15;;;;;;;3.20;1.70;;;;;;;22.15;46.82;96795.59;5073321;28;20048;-81
2022/08/07 08:50:47;;;;;;;3.03;1.73;;;;;;;22.06;44.81;96804.19;5072704;28;20068;-83
2022/08/07 08:53:19;;;;;;;1.98;1.40;;;;;;;22.05;45.66;96797.06;5074819;28;20055;-81
2022/08/07 08:55:49;;;;;;;4.90;2.10;;;;;;;22.10;48.29;96809.78;5073841;28;20080;-80
2022/08/07 08:58:24;;;;;;;3.67;1.80;;;;;;;22.15;45.11;96801.13;5073822;28;20423;-81
2022/08/07 09:00:54;;;;;;;5.35;3.33;;;;;;;22.12;45.61;96802.69;5074512;28;20558;-82
2022/08/07 09:03:28;;;;;;;2.42;1.65;;;;;;;22.19;46.99;96806.72;5077620;28;20051;-81
2022/08/07 09:06:03;;;;;;;4.50;1.83;;;;;;;22.14;46.00;96800.34;5073443;28;20048;-81
2022/08/07 09:08:41;;;;;;;3.10;1.52;;;;;;;22.29;47.41;96792.13;5073661;28;20048;-81
2022/08/07 09:11:16;;;;;;;2.72;1.80;;;;;;;22.29;45.54;96794.91;5072507;28;20504;-79
2022/08/07 09:13:54;;;;;;;1.98;1.45;;;;;;;22.39;48.02;96799.75;5074416;28;20052;-80
2022/08/07 09:16:26;;;;;;;3.38;1.63;;;;;;;22.40;48.56;96795.81;5071813;28;20515;-80
2022/08/07 09:19:10;;;;;;;2.57;1.77;;;;;;;22.59;46.18;96808.63;5074090;28;20074;-78
2022/08/07 09:21:48;;;;;;;2.17;1.63;;;;;;;22.58;45.35;96802.28;5073350;28;20045;-80
2022/08/07 09:24:30;;;;;;;2.45;1.50;;;;;;;22.37;45.50;96799.34;5073541;28;20503;-79
2022/08/07 09:27:08;;;;;;;3.97;1.88;;;;;;;22.45;44.07;96798.22;5074656;28;20083;-79
2022/08/07 09:29:46;;;;;;;2.00;1.48;;;;;;;22.47;43.52;96784.75;5076293;28;20480;-78
2022/08/07 09:32:22;;;;;;;2.60;1.50;;;;;;;22.70;45.25;96800.34;5076109;28;20055;-79
2022/08/07 09:35:00;;;;;;;3.97;2.75;;;;;;;22.66;44.44;96786.47;5080594;28;20068;-79
2022/08/07 09:37:36;;;;;;;4.78;2.83;;;;;;;22.80;47.58;96791.31;5085965;28;20041;-80
2022/08/07 09:40:08;;;;;;;3.20;1.75;;;;;;;22.76;43.79;96790.47;5085382;28;20053;-80
2022/08/07 09:42:48;;;;;;;2.57;1.80;;;;;;;22.91;45.38;96789.41;5086465;28;20048;-82
2022/08/07 09:45:20;;;;;;;3.45;1.55;;;;;;;22.69;42.36;96774.59;5083447;28;20278;-80
2022/08/07 09:48:03;;;;;;;2.10;1.42;;;;;;;22.68;45.18;96784.09;5084446;28;20050;-80
2022/08/07 09:50:39;;;;;;;6.13;1.63;;;;;;;22.82;43.46;96778.66;5089606;28;20058;-81
2022/08/07 09:53:10;;;;;;;3.13;1.50;;;;;;;22.98;44.76;96775.59;5077066;28;20106;-81
2022/08/07 09:56:00;;;;;;;2.30;1.60;;;;;;;23.14;44.37;96772.50;5079068;28;20048;-81
2022/08/07 09:58:51;;;;;;;3.40;1.58;;;;;;;23.29;46.53;96770.56;5080502;28;20051;-81
2022/08/07 10:01:40;;;;;;;3.92;1.65;;;;;;;23.40;43.06;96768.63;5077803;28;20044;-82
2022/08/07 10:04:21;;;;;;;3.50;1.80;;;;;;;23.57;43.42;96769.88;5079084;28;20075;-81
2022/08/07 10:07:02;;;;;;;3.15;1.70;;;;;;;23.61;43.26;96765.91;5062305;28;20059;-81
2022/08/07 10:09:40;;;;;;;2.15;1.58;;;;;;;23.57;42.78;96770.66;5087317;28;20063;-82
2022/08/07 10:12:19;;;;;;;1.88;1.30;;;;;;;23.78;44.10;96771.94;5076172;28;20044;-84
2022/08/07 10:15:03;;;;;;;4.43;1.50;;;;;;;23.83;44.45;96757.63;5081381;28;20198;-81
2022/08/07 10:17:56;;;;;;;5.43;2.30;;;;;;;23.96;46.28;96767.19;5079960;28;20048;-81
2022/08/07 10:20:32;;;;;;;2.78;1.40;;;;;;;24.07;42.82;96765.22;5076408;28;20044;-80
2022/08/07 10:23:34;;;;;;;4.63;1.70;;;;;;;23.96;42.72;96761.63;5076522;28;20063;-81
2022/08/07 10:26:13;;;;;;;2.33;1.70;;;;;;;23.93;40.64;96754.88;5096996;28;20036;-79
2022/08/07 10:28:55;;;;;;;3.17;1.75;;;;;;;23.82;40.72;96753.28;5079307;28;20101;-81
2022/08/07 10:31:52;;;;;;;4.05;1.85;;;;;;;23.64;41.98;96754.00;5097582;28;20832;-79
2022/08/07 10:34:36;;;;;;;2.78;1.50;;;;;;;23.58;43.63;96752.00;5078088;28;20048;-80
2022/08/07 10:37:24;;;;;;;1.80;1.45;;;;;;;23.68;43.76;96746.47;5096311;28;20525;-79
2022/08/07 10:40:02;;;;;;;2.70;1.80;;;;;;;23.62;42.99;96748.03;5094762;28;20048;-80
2022/08/07 10:42:35;;;;;;;4.93;1.70;;;;;;;23.77;45.91;96743.34;5102670;28;20047;-80
2022/08/07 10:45:15;;;;;;;2.00;1.60;;;;;;;23.41;40.95;96737.66;5098972;28;20044;-77
2022/08/07 10:48:00;;;;;;;;;;;;;;;;;;;;;
2022/08/07 10:50:34;;;;;;;4.25;2.25;;;;;;;23.89;45.19;96739.38;5103279;28;20672;-82
2022/08/07 10:53:09;;;;;;;4.60;1.42;;;;;;;24.02;45.13;96737.81;5099652;28;20043;-79
2022/08/07 10:55:45;;;;;;;1.63;1.27;;;;;;;23.87;43.49;96736.19;5099198;28;20063;-80
2022/08/07 10:58:31;;;;;;;2.22;1.42;;;;;;;23.85;42.75;96738.56;5094726;28;20123;-78
2022/08/07 11:01:10;;;;;;;5.93;1.58;;;;;;;23.65;42.64;96735.38;5096156;28;20055;-78
2022/08/07 11:03:42;;;;;;;4.60;1.73;;;;;;;23.35;41.33;96730.09;5096883;28;20044;-80
2022/08/07 11:06:13;;;;;;;3.72;2.13;;;;;;;22.92;43.81;96733.50;5096543;28;20163;-79
2022/08/07 11:08:48;;;;;;;2.70;1.65;;;;;;;22.77;43.06;96734.59;5096233;28;20055;-81
2022/08/07 11:11:21;;;;;;;3.53;1.67;;;;;;;22.75;45.55;96728.63;5095493;28;20055;-80
2022/08/07 11:13:51;;;;;;;2.28;1.48;;;;;;;22.53;44.63;96735.22;5095390;28;20056;-81
2022/08/07 11:16:22;;;;;;;2.83;1.60;;;;;;;22.50;44.67;96728.50;5097327;28;20067;-80
2022/08/07 11:18:53;;;;;;;3.22;1.50;;;;;;;22.54;44.91;96729.28;5081307;28;20051;-80
2022/08/07 11:21:34;;;;;;;3.22;1.42;;;;;;;22.45;46.60;96714.97;5096650;28;20070;-80
2022/08/07 11:24:08;;;;;;;3.85;1.63;;;;;;;22.52;45.76;96719.78;5098240;28;20040;-80
2022/08/07 11:26:43;;;;;;;2.40;1.70;;;;;;;22.47;44.42;96712.59;5098018;28;20044;-80
2022/08/07 11:29:14;;;;;;;4.20;1.70;;;;;;;22.69;46.40;96721.84;5099957;28;20107;-79
2022/08/07 11:31:46;;;;;;;3.25;1.70;;;;;;;22.66;43.81;96720.66;5100251;28;20060;-81
2022/08/07 11:34:20;;;;;;;3.10;1.90;;;;;;;22.82;45.33;96705.66;5097631;28;20414;-82
2022/08/07 11:36:59;;;;;;;2.22;1.23;;;;;;;22.99;42.00;96704.97;5100427;28;20436;-83
2022/08/07 11:39:44;;;;;;;2.45;1.33;;;;;;;23.11;46.06;96696.28;5099060;28;20044;-80
2022/08/07 11:42:18;;;;;;;1.73;1.30;;;;;;;23.33;47.37;96713.00;5097370;28;20044;-81
2022/08/07 11:44:54;;;;;;;3.10;1.52;;;;;;;23.35;41.09;96699.53;5097598;28;20051;-82
2022/08/07 11:47:37;;;;;;;1.95;1.10;;;;;;;23.49;44.48;96694.03;5104591;28;20050;-81
2022/08/07 11:50:17;;;;;;;1.45;1.33;;;;;;;23.52;43.23;96698.78;5092587;28;20479;-82
2022/08/07 11:52:55;;;;;;;3.47;1.60;;;;;;;23.70;41.82;96693.28;5106437;28;20048;-82
2022/08/07 11:55:45;;;;;;;2.28;1.50;;;;;;;23.92;43.81;96699.66;5079236;28;21120;-81
2022/08/07 11:58:20;;;;;;;1.52;1.20;;;;;;;24.05;42.04;96686.91;5093680;28;20135;-81